Wildcat, West Virginia
Current Conditions -  °F | °C
As of 5:55 PM on Tuesday 21 Oct 2014 (Local Time) from KW22 Reporting Station
Drizzle Drizzle  
Wind Chill: 46°   Ceiling: 700
Heat Index: 46°   Visibility: 5mi
Dew Point: 46°   Wind: 0mph
Humidity: 100%   Direction: NA
Pressure: 29.96"   Gusts: NA
Location:  38.7502°N, 80.4805°W
Report Text: KW22 212155Z AUTO 00000KT 5SM -DZ BKN007 BKN012 OVC030 08/08 A2996 RMK AO2
Loading
Personal Weather Stations






























Interactive Weather Map New forecast layout! Learn more

10-Day Weather Forecast

Advertisements
Track Severe Weather on mobile